sensor_id;sensor_type;location;lat;lon;timestamp;P1;durP1;ratioP1;P2;durP2;ratioP2
23113;SDS011;11726;50.122;8.832;2023-04-03T00:02:17;4.28;;;1.88;;
23113;SDS011;11726;50.122;8.832;2023-04-03T00:04:43;2.72;;;1.70;;
23113;SDS011;11726;50.122;8.832;2023-04-03T00:07:11;3.33;;;1.88;;
23113;SDS011;11726;50.122;8.832;2023-04-03T00:09:38;2.90;;;1.75;;
23113;SDS011;11726;50.122;8.832;2023-04-03T00:12:05;2.88;;;1.80;;
23113;SDS011;11726;50.122;8.832;2023-04-03T00:14:32;3.97;;;1.77;;
23113;SDS011;11726;50.122;8.832;2023-04-03T00:16:58;2.92;;;1.90;;
23113;SDS011;11726;50.122;8.832;2023-04-03T00:19:25;3.97;;;2.30;;
23113;SDS011;11726;50.122;8.832;2023-04-03T00:21:52;2.63;;;1.65;;
23113;SDS011;11726;50.122;8.832;2023-04-03T00:24:19;3.67;;;1.95;;
23113;SDS011;11726;50.122;8.832;2023-04-03T00:26:46;2.83;;;1.60;;
23113;SDS011;11726;50.122;8.832;2023-04-03T00:29:13;4.00;;;1.67;;
23113;SDS011;11726;50.122;8.832;2023-04-03T00:31:39;2.83;;;1.98;;
23113;SDS011;11726;50.122;8.832;2023-04-03T00:34:06;2.72;;;1.98;;
23113;SDS011;11726;50.122;8.832;2023-04-03T00:36:33;4.00;;;1.80;;
23113;SDS011;11726;50.122;8.832;2023-04-03T00:39:00;3.38;;;1.90;;
23113;SDS011;11726;50.122;8.832;2023-04-03T00:41:27;3.40;;;2.10;;
23113;SDS011;11726;50.122;8.832;2023-04-03T00:43:53;4.60;;;1.90;;
23113;SDS011;11726;50.122;8.832;2023-04-03T00:46:20;3.72;;;1.80;;
23113;SDS011;11726;50.122;8.832;2023-04-03T00:48:48;3.67;;;1.98;;
23113;SDS011;11726;50.122;8.832;2023-04-03T00:51:19;4.38;;;1.85;;
23113;SDS011;11726;50.122;8.832;2023-04-03T00:53:56;2.25;;;1.60;;
23113;SDS011;11726;50.122;8.832;2023-04-03T00:56:27;2.65;;;1.85;;
23113;SDS011;11726;50.122;8.832;2023-04-03T00:59:04;5.13;;;2.00;;
23113;SDS011;11726;50.122;8.832;2023-04-03T01:01:34;3.40;;;1.85;;
23113;SDS011;11726;50.122;8.832;2023-04-03T01:04:02;5.03;;;2.25;;
23113;SDS011;11726;50.122;8.832;2023-04-03T01:06:32;3.45;;;2.30;;
23113;SDS011;11726;50.122;8.832;2023-04-03T01:09:03;3.60;;;2.03;;
23113;SDS011;11726;50.122;8.832;2023-04-03T01:11:31;4.32;;;2.45;;
23113;SDS011;11726;50.122;8.832;2023-04-03T01:13:58;3.83;;;2.17;;
23113;SDS011;11726;50.122;8.832;2023-04-03T01:16:24;3.80;;;2.55;;
23113;SDS011;11726;50.122;8.832;2023-04-03T01:18:51;4.82;;;2.90;;
23113;SDS011;11726;50.122;8.832;2023-04-03T01:24:13;5.57;;;2.47;;
23113;SDS011;11726;50.122;8.832;2023-04-03T01:26:50;4.65;;;2.38;;
23113;SDS011;11726;50.122;8.832;2023-04-03T01:29:17;3.35;;;2.20;;
23113;SDS011;11726;50.122;8.832;2023-04-03T01:31:57;4.60;;;2.20;;
23113;SDS011;11726;50.122;8.832;2023-04-03T01:34:26;4.28;;;1.98;;
23113;SDS011;11726;50.122;8.832;2023-04-03T01:36:54;3.92;;;2.08;;
23113;SDS011;11726;50.122;8.832;2023-04-03T01:39:21;3.97;;;1.92;;
23113;SDS011;11726;50.122;8.832;2023-04-03T01:41:48;3.33;;;1.83;;
23113;SDS011;11726;50.122;8.832;2023-04-03T01:44:15;3.30;;;1.90;;
23113;SDS011;11726;50.122;8.832;2023-04-03T01:46:42;2.78;;;1.83;;
23113;SDS011;11726;50.122;8.832;2023-04-03T01:49:09;2.10;;;1.67;;
23113;SDS011;11726;50.122;8.832;2023-04-03T01:51:36;4.78;;;1.85;;
23113;SDS011;11726;50.122;8.832;2023-04-03T01:54:03;3.95;;;1.90;;
23113;SDS011;11726;50.122;8.832;2023-04-03T01:56:30;3.78;;;1.60;;
23113;SDS011;11726;50.122;8.832;2023-04-03T01:58:56;4.65;;;2.00;;
23113;SDS011;11726;50.122;8.832;2023-04-03T02:01:23;2.30;;;1.60;;
23113;SDS011;11726;50.122;8.832;2023-04-03T02:03:50;4.43;;;1.60;;
23113;SDS011;11726;50.122;8.832;2023-04-03T02:06:16;3.72;;;2.00;;
23113;SDS011;11726;50.122;8.832;2023-04-03T02:08:43;3.42;;;1.70;;
23113;SDS011;11726;50.122;8.832;2023-04-03T02:11:10;3.97;;;1.80;;
23113;SDS011;11726;50.122;8.832;2023-04-03T02:13:36;3.45;;;1.90;;
23113;SDS011;11726;50.122;8.832;2023-04-03T02:16:07;3.05;;;1.70;;
23113;SDS011;11726;50.122;8.832;2023-04-03T02:18:36;5.50;;;1.60;;
23113;SDS011;11726;50.122;8.832;2023-04-03T02:21:03;4.07;;;1.92;;
23113;SDS011;11726;50.122;8.832;2023-04-03T02:23:30;3.08;;;1.60;;
23113;SDS011;11726;50.122;8.832;2023-04-03T02:26:07;2.33;;;1.30;;
23113;SDS011;11726;50.122;8.832;2023-04-03T02:28:37;4.35;;;1.83;;
23113;SDS011;11726;50.122;8.832;2023-04-03T02:31:04;3.75;;;1.67;;
23113;SDS011;11726;50.122;8.832;2023-04-03T02:33:32;6.03;;;1.90;;
23113;SDS011;11726;50.122;8.832;2023-04-03T02:35:59;3.00;;;1.60;;
23113;SDS011;11726;50.122;8.832;2023-04-03T02:38:26;3.85;;;1.77;;
23113;SDS011;11726;50.122;8.832;2023-04-03T02:40:53;4.47;;;1.70;;
23113;SDS011;11726;50.122;8.832;2023-04-03T02:43:25;4.47;;;1.45;;
23113;SDS011;11726;50.122;8.832;2023-04-03T02:45:51;4.05;;;1.85;;
23113;SDS011;11726;50.122;8.832;2023-04-03T02:48:18;4.07;;;1.40;;
23113;SDS011;11726;50.122;8.832;2023-04-03T02:50:45;3.65;;;1.40;;
23113;SDS011;11726;50.122;8.832;2023-04-03T02:53:12;3.40;;;1.55;;
23113;SDS011;11726;50.122;8.832;2023-04-03T02:55:38;3.85;;;1.75;;
23113;SDS011;11726;50.122;8.832;2023-04-03T02:58:05;3.95;;;1.10;;
23113;SDS011;11726;50.122;8.832;2023-04-03T03:00:35;5.18;;;1.38;;
23113;SDS011;11726;50.122;8.832;2023-04-03T03:03:05;4.10;;;1.30;;
23113;SDS011;11726;50.122;8.832;2023-04-03T03:05:31;4.72;;;1.52;;
23113;SDS011;11726;50.122;8.832;2023-04-03T03:07:58;3.75;;;1.25;;
23113;SDS011;11726;50.122;8.832;2023-04-03T03:10:25;3.85;;;1.30;;
23113;SDS011;11726;50.122;8.832;2023-04-03T03:12:52;3.92;;;1.30;;
23113;SDS011;11726;50.122;8.832;2023-04-03T03:15:19;6.53;;;1.77;;
23113;SDS011;11726;50.122;8.832;2023-04-03T03:17:45;3.63;;;1.30;;
23113;SDS011;11726;50.122;8.832;2023-04-03T03:20:12;6.82;;;1.25;;
23113;SDS011;11726;50.122;8.832;2023-04-03T03:22:42;5.80;;;1.52;;
23113;SDS011;11726;50.122;8.832;2023-04-03T03:25:09;3.15;;;1.30;;
23113;SDS011;11726;50.122;8.832;2023-04-03T03:27:36;7.78;;;1.45;;
23113;SDS011;11726;50.122;8.832;2023-04-03T03:30:03;3.08;;;1.25;;
23113;SDS011;11726;50.122;8.832;2023-04-03T03:32:30;5.72;;;1.35;;
23113;SDS011;11726;50.122;8.832;2023-04-03T03:34:57;5.03;;;1.50;;
23113;SDS011;11726;50.122;8.832;2023-04-03T03:37:24;5.32;;;1.40;;
23113;SDS011;11726;50.122;8.832;2023-04-03T03:39:50;6.03;;;1.63;;
23113;SDS011;11726;50.122;8.832;2023-04-03T03:42:17;4.75;;;1.50;;
23113;SDS011;11726;50.122;8.832;2023-04-03T03:44:44;6.70;;;1.58;;
23113;SDS011;11726;50.122;8.832;2023-04-03T03:47:10;4.30;;;1.50;;
23113;SDS011;11726;50.122;8.832;2023-04-03T03:49:37;5.93;;;1.50;;
23113;SDS011;11726;50.122;8.832;2023-04-03T03:52:04;3.78;;;1.25;;
23113;SDS011;11726;50.122;8.832;2023-04-03T03:54:31;6.80;;;1.52;;
23113;SDS011;11726;50.122;8.832;2023-04-03T03:56:57;4.75;;;1.52;;
23113;SDS011;11726;50.122;8.832;2023-04-03T03:59:24;4.28;;;1.63;;
23113;SDS011;11726;50.122;8.832;2023-04-03T04:01:51;4.07;;;1.75;;
23113;SDS011;11726;50.122;8.832;2023-04-03T04:04:17;4.03;;;1.95;;
23113;SDS011;11726;50.122;8.832;2023-04-03T04:06:44;6.78;;;1.70;;
23113;SDS011;11726;50.122;8.832;2023-04-03T04:09:11;4.50;;;1.50;;
23113;SDS011;11726;50.122;8.832;2023-04-03T04:11:40;5.75;;;1.45;;
23113;SDS011;11726;50.122;8.832;2023-04-03T04:14:07;4.75;;;1.65;;
23113;SDS011;11726;50.122;8.832;2023-04-03T04:16:39;4.57;;;1.55;;
23113;SDS011;11726;50.122;8.832;2023-04-03T04:19:06;4.90;;;1.60;;
23113;SDS011;11726;50.122;8.832;2023-04-03T04:21:34;7.28;;;1.58;;
23113;SDS011;11726;50.122;8.832;2023-04-03T04:24:01;5.03;;;1.63;;
23113;SDS011;11726;50.122;8.832;2023-04-03T04:26:28;5.03;;;1.50;;
23113;SDS011;11726;50.122;8.832;2023-04-03T04:28:56;7.18;;;1.63;;
23113;SDS011;11726;50.122;8.832;2023-04-03T04:31:22;6.97;;;1.70;;
23113;SDS011;11726;50.122;8.832;2023-04-03T04:33:49;4.82;;;1.60;;
23113;SDS011;11726;50.122;8.832;2023-04-03T04:36:16;4.18;;;1.63;;
23113;SDS011;11726;50.122;8.832;2023-04-03T04:38:43;8.73;;;2.13;;
23113;SDS011;11726;50.122;8.832;2023-04-03T04:41:10;7.07;;;2.00;;
23113;SDS011;11726;50.122;8.832;2023-04-03T04:43:37;8.52;;;2.00;;
23113;SDS011;11726;50.122;8.832;2023-04-03T04:46:04;6.15;;;1.90;;
23113;SDS011;11726;50.122;8.832;2023-04-03T04:48:36;3.85;;;1.60;;
23113;SDS011;11726;50.122;8.832;2023-04-03T04:51:03;4.95;;;1.70;;
23113;SDS011;11726;50.122;8.832;2023-04-03T04:53:30;3.53;;;1.50;;
23113;SDS011;11726;50.122;8.832;2023-04-03T04:55:57;4.47;;;1.45;;
23113;SDS011;11726;50.122;8.832;2023-04-03T04:58:24;7.88;;;2.03;;
23113;SDS011;11726;50.122;8.832;2023-04-03T05:01:01;4.95;;;1.73;;
23113;SDS011;11726;50.122;8.832;2023-04-03T05:03:29;2.30;;;1.50;;
23113;SDS011;11726;50.122;8.832;2023-04-03T05:05:56;4.40;;;1.50;;
23113;SDS011;11726;50.122;8.832;2023-04-03T05:08:23;4.45;;;1.85;;
23113;SDS011;11726;50.122;8.832;2023-04-03T05:10:50;6.60;;;1.63;;
23113;SDS011;11726;50.122;8.832;2023-04-03T05:13:20;5.07;;;1.70;;
23113;SDS011;11726;50.122;8.832;2023-04-03T05:15:47;6.95;;;2.17;;
23113;SDS011;11726;50.122;8.832;2023-04-03T05:18:14;3.25;;;1.58;;
23113;SDS011;11726;50.122;8.832;2023-04-03T05:20:41;6.05;;;1.70;;
23113;SDS011;11726;50.122;8.832;2023-04-03T05:23:09;6.68;;;2.00;;
23113;SDS011;11726;50.122;8.832;2023-04-03T05:25:39;5.70;;;1.55;;
23113;SDS011;11726;50.122;8.832;2023-04-03T05:28:06;4.47;;;1.95;;
23113;SDS011;11726;50.122;8.832;2023-04-03T05:30:33;5.60;;;2.00;;
23113;SDS011;11726;50.122;8.832;2023-04-03T05:33:00;5.18;;;1.85;;
23113;SDS011;11726;50.122;8.832;2023-04-03T05:35:27;4.10;;;1.70;;
23113;SDS011;11726;50.122;8.832;2023-04-03T05:37:54;6.70;;;2.05;;
23113;SDS011;11726;50.122;8.832;2023-04-03T05:40:21;4.78;;;1.75;;
23113;SDS011;11726;50.122;8.832;2023-04-03T05:42:48;4.15;;;2.10;;
23113;SDS011;11726;50.122;8.832;2023-04-03T05:45:15;4.15;;;1.80;;
23113;SDS011;11726;50.122;8.832;2023-04-03T05:47:41;3.67;;;1.83;;
23113;SDS011;11726;50.122;8.832;2023-04-03T05:50:08;6.97;;;2.58;;
23113;SDS011;11726;50.122;8.832;2023-04-03T05:52:36;6.47;;;2.10;;
23113;SDS011;11726;50.122;8.832;2023-04-03T05:55:05;7.80;;;2.45;;
23113;SDS011;11726;50.122;8.832;2023-04-03T05:57:32;6.25;;;2.30;;
23113;SDS011;11726;50.122;8.832;2023-04-03T05:59:59;8.50;;;2.42;;
23113;SDS011;11726;50.122;8.832;2023-04-03T06:02:25;5.70;;;2.15;;
23113;SDS011;11726;50.122;8.832;2023-04-03T06:04:55;8.45;;;2.30;;
23113;SDS011;11726;50.122;8.832;2023-04-03T06:07:23;8.13;;;2.08;;
23113;SDS011;11726;50.122;8.832;2023-04-03T06:09:54;8.13;;;2.13;;
23113;SDS011;11726;50.122;8.832;2023-04-03T06:12:22;7.32;;;2.10;;
23113;SDS011;11726;50.122;8.832;2023-04-03T06:14:48;7.40;;;2.13;;
23113;SDS011;11726;50.122;8.832;2023-04-03T06:17:15;7.88;;;2.17;;
23113;SDS011;11726;50.122;8.832;2023-04-03T06:19:44;6.72;;;2.20;;
23113;SDS011;11726;50.122;8.832;2023-04-03T06:22:11;6.90;;;2.40;;
23113;SDS011;11726;50.122;8.832;2023-04-03T06:24:39;6.65;;;2.72;;
23113;SDS011;11726;50.122;8.832;2023-04-03T06:27:06;6.03;;;2.30;;
23113;SDS011;11726;50.122;8.832;2023-04-03T06:29:33;8.48;;;2.35;;
23113;SDS011;11726;50.122;8.832;2023-04-03T06:31:59;5.38;;;2.22;;
23113;SDS011;11726;50.122;8.832;2023-04-03T06:34:26;5.75;;;2.58;;
23113;SDS011;11726;50.122;8.832;2023-04-03T06:36:54;7.28;;;2.47;;
23113;SDS011;11726;50.122;8.832;2023-04-03T06:39:21;5.88;;;2.47;;
23113;SDS011;11726;50.122;8.832;2023-04-03T06:41:49;6.43;;;2.28;;
23113;SDS011;11726;50.122;8.832;2023-04-03T06:44:16;6.32;;;2.42;;
23113;SDS011;11726;50.122;8.832;2023-04-03T06:46:44;7.72;;;2.35;;
23113;SDS011;11726;50.122;8.832;2023-04-03T06:49:12;5.15;;;2.25;;
23113;SDS011;11726;50.122;8.832;2023-04-03T06:51:41;7.68;;;2.40;;
23113;SDS011;11726;50.122;8.832;2023-04-03T06:54:08;6.97;;;2.35;;
23113;SDS011;11726;50.122;8.832;2023-04-03T06:56:35;7.47;;;2.00;;
23113;SDS011;11726;50.122;8.832;2023-04-03T06:59:04;6.90;;;2.65;;
23113;SDS011;11726;50.122;8.832;2023-04-03T07:01:33;6.10;;;2.30;;
23113;SDS011;11726;50.122;8.832;2023-04-03T07:04:00;5.55;;;2.58;;
23113;SDS011;11726;50.122;8.832;2023-04-03T07:06:27;4.07;;;2.22;;
23113;SDS011;11726;50.122;8.832;2023-04-03T07:08:54;5.55;;;2.65;;
23113;SDS011;11726;50.122;8.832;2023-04-03T07:11:21;8.20;;;2.33;;
23113;SDS011;11726;50.122;8.832;2023-04-03T07:13:48;5.68;;;2.85;;
23113;SDS011;11726;50.122;8.832;2023-04-03T07:16:15;5.28;;;2.30;;
23113;SDS011;11726;50.122;8.832;2023-04-03T07:18:42;7.43;;;2.55;;
23113;SDS011;11726;50.122;8.832;2023-04-03T07:21:09;6.95;;;3.60;;
23113;SDS011;11726;50.122;8.832;2023-04-03T07:23:36;8.10;;;3.47;;
23113;SDS011;11726;50.122;8.832;2023-04-03T07:26:04;7.90;;;3.30;;
23113;SDS011;11726;50.122;8.832;2023-04-03T07:28:30;4.18;;;2.50;;
23113;SDS011;11726;50.122;8.832;2023-04-03T07:31:02;6.05;;;3.25;;
23113;SDS011;11726;50.122;8.832;2023-04-03T07:33:32;8.30;;;2.58;;
23113;SDS011;11726;50.122;8.832;2023-04-03T07:35:59;5.75;;;2.70;;
23113;SDS011;11726;50.122;8.832;2023-04-03T07:38:26;3.90;;;2.00;;
23113;SDS011;11726;50.122;8.832;2023-04-03T07:40:53;7.78;;;2.63;;
23113;SDS011;11726;50.122;8.832;2023-04-03T07:43:20;5.88;;;2.40;;
23113;SDS011;11726;50.122;8.832;2023-04-03T07:45:48;4.13;;;2.05;;
23113;SDS011;11726;50.122;8.832;2023-04-03T07:48:19;6.32;;;2.40;;
23113;SDS011;11726;50.122;8.832;2023-04-03T07:50:47;5.82;;;2.42;;
23113;SDS011;11726;50.122;8.832;2023-04-03T07:53:14;2.90;;;2.10;;
23113;SDS011;11726;50.122;8.832;2023-04-03T07:55:41;4.63;;;2.10;;
23113;SDS011;11726;50.122;8.832;2023-04-03T07:58:11;7.70;;;2.25;;
23113;SDS011;11726;50.122;8.832;2023-04-03T08:00:40;5.25;;;2.25;;
23113;SDS011;11726;50.122;8.832;2023-04-03T08:03:07;7.75;;;2.60;;
23113;SDS011;11726;50.122;8.832;2023-04-03T08:05:38;7.13;;;2.85;;
23113;SDS011;11726;50.122;8.832;2023-04-03T08:08:07;7.63;;;3.53;;
23113;SDS011;11726;50.122;8.832;2023-04-03T08:10:36;4.47;;;1.95;;
23113;SDS011;11726;50.122;8.832;2023-04-03T08:13:03;5.45;;;1.88;;
23113;SDS011;11726;50.122;8.832;2023-04-03T08:15:31;4.93;;;2.30;;
23113;SDS011;11726;50.122;8.832;2023-04-03T08:17:58;4.30;;;1.98;;
23113;SDS011;11726;50.122;8.832;2023-04-03T08:20:25;5.75;;;1.80;;
23113;SDS011;11726;50.122;8.832;2023-04-03T08:22:52;3.15;;;1.73;;
23113;SDS011;11726;50.122;8.832;2023-04-03T08:25:20;4.97;;;2.13;;
23113;SDS011;11726;50.122;8.832;2023-04-03T08:27:47;4.13;;;1.98;;
23113;SDS011;11726;50.122;8.832;2023-04-03T08:30:13;4.28;;;1.75;;
23113;SDS011;11726;50.122;8.832;2023-04-03T08:32:40;5.72;;;1.83;;
23113;SDS011;11726;50.122;8.832;2023-04-03T08:35:10;7.00;;;2.33;;
23113;SDS011;11726;50.122;8.832;2023-04-03T08:37:38;4.38;;;1.77;;
23113;SDS011;11726;50.122;8.832;2023-04-03T08:40:06;4.53;;;1.92;;
23113;SDS011;11726;50.122;8.832;2023-04-03T08:45:48;5.15;;;1.92;;
23113;SDS011;11726;50.122;8.832;2023-04-03T08:48:23;4.95;;;2.03;;
23113;SDS011;11726;50.122;8.832;2023-04-03T08:50:58;6.00;;;1.98;;
23113;SDS011;11726;50.122;8.832;2023-04-03T08:53:30;4.28;;;1.98;;
23113;SDS011;11726;50.122;8.832;2023-04-03T08:56:02;5.68;;;2.22;;
23113;SDS011;11726;50.122;8.832;2023-04-03T08:58:56;3.85;;;1.80;;
23113;SDS011;11726;50.122;8.832;2023-04-03T09:01:33;5.65;;;2.25;;
23113;SDS011;11726;50.122;8.832;2023-04-03T09:04:25;5.40;;;2.22;;
23113;SDS011;11726;50.122;8.832;2023-04-03T09:06:54;5.53;;;2.22;;
23113;SDS011;11726;50.122;8.832;2023-04-03T09:14:57;7.28;;;1.92;;
23113;SDS011;11726;50.122;8.832;2023-04-03T09:23:14;4.38;;;1.85;;
23113;SDS011;11726;50.122;8.832;2023-04-03T09:25:46;6.28;;;2.17;;
23113;SDS011;11726;50.122;8.832;2023-04-03T09:28:15;4.00;;;2.20;;
23113;SDS011;11726;50.122;8.832;2023-04-03T09:30:41;5.70;;;1.98;;
23113;SDS011;11726;50.122;8.832;2023-04-03T09:33:09;3.83;;;2.15;;
23113;SDS011;11726;50.122;8.832;2023-04-03T09:35:37;5.22;;;2.33;;
23113;SDS011;11726;50.122;8.832;2023-04-03T09:40:47;7.65;;;2.20;;
23113;SDS011;11726;50.122;8.832;2023-04-03T09:43:20;6.18;;;2.20;;
23113;SDS011;11726;50.122;8.832;2023-04-03T09:45:52;7.50;;;2.30;;
23113;SDS011;11726;50.122;8.832;2023-04-03T09:48:21;4.22;;;2.20;;
23113;SDS011;11726;50.122;8.832;2023-04-03T09:53:26;4.70;;;2.13;;
23113;SDS011;11726;50.122;8.832;2023-04-03T09:55:55;5.00;;;1.90;;
23113;SDS011;11726;50.122;8.832;2023-04-03T09:58:28;5.72;;;2.13;;
23113;SDS011;11726;50.122;8.832;2023-04-03T10:01:25;4.32;;;1.92;;
23113;SDS011;11726;50.122;8.832;2023-04-03T10:06:34;4.90;;;2.05;;
23113;SDS011;11726;50.122;8.832;2023-04-03T10:09:15;3.45;;;1.83;;
23113;SDS011;11726;50.122;8.832;2023-04-03T10:15:17;6.68;;;2.00;;
23113;SDS011;11726;50.122;8.832;2023-04-03T10:17:30;4.55;;;2.08;;
23113;SDS011;11726;50.122;8.832;2023-04-03T10:28:09;5.13;;;2.50;;
23113;SDS011;11726;50.122;8.832;2023-04-03T10:30:42;3.95;;;2.00;;
23113;SDS011;11726;50.122;8.832;2023-04-03T10:47:47;6.43;;;2.70;;
23113;SDS011;11726;50.122;8.832;2023-04-03T10:58:36;4.30;;;1.98;;
23113;SDS011;11726;50.122;8.832;2023-04-03T11:01:08;3.97;;;2.00;;
23113;SDS011;11726;50.122;8.832;2023-04-03T11:03:41;3.40;;;2.22;;
23113;SDS011;11726;50.122;8.832;2023-04-03T11:06:11;4.32;;;2.05;;
23113;SDS011;11726;50.122;8.832;2023-04-03T11:08:44;4.70;;;2.42;;
23113;SDS011;11726;50.122;8.832;2023-04-03T11:11:19;2.65;;;1.58;;
23113;SDS011;11726;50.122;8.832;2023-04-03T11:13:56;3.80;;;2.00;;
23113;SDS011;11726;50.122;8.832;2023-04-03T11:16:29;3.10;;;1.80;;
23113;SDS011;11726;50.122;8.832;2023-04-03T11:19:23;3.03;;;1.65;;
23113;SDS011;11726;50.122;8.832;2023-04-03T11:22:43;3.35;;;1.95;;
23113;SDS011;11726;50.122;8.832;2023-04-03T11:27:30;3.85;;;1.73;;
23113;SDS011;11726;50.122;8.832;2023-04-03T11:30:09;4.55;;;1.98;;
23113;SDS011;11726;50.122;8.832;2023-04-03T11:33:03;4.43;;;2.17;;
23113;SDS011;11726;50.122;8.832;2023-04-03T11:35:51;3.10;;;1.67;;
23113;SDS011;11726;50.122;8.832;2023-04-03T11:41:33;2.85;;;1.45;;
23113;SDS011;11726;50.122;8.832;2023-04-03T11:44:05;5.07;;;1.88;;
23113;SDS011;11726;50.122;8.832;2023-04-03T11:46:56;3.38;;;1.92;;
23113;SDS011;11726;50.122;8.832;2023-04-03T11:52:53;2.97;;;1.95;;
23113;SDS011;11726;50.122;8.832;2023-04-03T12:16:19;3.63;;;1.98;;
23113;SDS011;11726;50.122;8.832;2023-04-03T12:21:17;5.45;;;1.70;;
23113;SDS011;11726;50.122;8.832;2023-04-03T12:29:25;6.28;;;3.75;;
23113;SDS011;11726;50.122;8.832;2023-04-03T12:37:49;4.38;;;2.80;;
23113;SDS011;11726;50.122;8.832;2023-04-03T12:43:18;3.63;;;1.75;;
23113;SDS011;11726;50.122;8.832;2023-04-03T12:45:50;2.60;;;1.77;;
23113;SDS011;11726;50.122;8.832;2023-04-03T12:48:20;2.75;;;1.70;;
23113;SDS011;11726;50.122;8.832;2023-04-03T12:50:54;3.88;;;1.80;;
23113;SDS011;11726;50.122;8.832;2023-04-03T12:53:23;5.00;;;2.17;;
23113;SDS011;11726;50.122;8.832;2023-04-03T12:55:56;4.72;;;1.98;;
23113;SDS011;11726;50.122;8.832;2023-04-03T12:58:43;3.85;;;1.70;;
23113;SDS011;11726;50.122;8.832;2023-04-03T13:01:11;5.97;;;2.10;;
23113;SDS011;11726;50.122;8.832;2023-04-03T13:03:43;4.05;;;1.70;;
23113;SDS011;11726;50.122;8.832;2023-04-03T13:06:18;3.65;;;1.70;;
23113;SDS011;11726;50.122;8.832;2023-04-03T13:11:24;5.70;;;2.28;;
23113;SDS011;11726;50.122;8.832;2023-04-03T13:14:12;4.30;;;2.08;;
23113;SDS011;11726;50.122;8.832;2023-04-03T13:19:45;3.50;;;2.30;;
23113;SDS011;11726;50.122;8.832;2023-04-03T13:22:33;4.65;;;2.60;;
23113;SDS011;11726;50.122;8.832;2023-04-03T13:25:06;5.43;;;2.88;;
23113;SDS011;11726;50.122;8.832;2023-04-03T13:27:35;4.35;;;2.67;;
23113;SDS011;11726;50.122;8.832;2023-04-03T13:30:03;6.13;;;2.88;;
23113;SDS011;11726;50.122;8.832;2023-04-03T13:32:30;6.47;;;2.60;;
23113;SDS011;11726;50.122;8.832;2023-04-03T13:34:58;6.45;;;2.97;;
23113;SDS011;11726;50.122;8.832;2023-04-03T13:37:52;6.50;;;3.15;;
23113;SDS011;11726;50.122;8.832;2023-04-03T13:40:24;5.50;;;2.60;;
23113;SDS011;11726;50.122;8.832;2023-04-03T13:43:02;6.15;;;2.78;;
23113;SDS011;11726;50.122;8.832;2023-04-03T13:45:32;4.85;;;2.72;;
23113;SDS011;11726;50.122;8.832;2023-04-03T13:51:12;5.47;;;2.83;;
23113;SDS011;11726;50.122;8.832;2023-04-03T13:53:47;4.75;;;2.50;;
23113;SDS011;11726;50.122;8.832;2023-04-03T13:56:32;2.75;;;2.13;;
23113;SDS011;11726;50.122;8.832;2023-04-03T14:01:44;4.40;;;2.13;;
23113;SDS011;11726;50.122;8.832;2023-04-03T14:04:13;3.47;;;2.35;;
23113;SDS011;11726;50.122;8.832;2023-04-03T14:06:45;2.97;;;1.90;;
23113;SDS011;11726;50.122;8.832;2023-04-03T14:09:13;6.38;;;2.00;;
23113;SDS011;11726;50.122;8.832;2023-04-03T14:11:42;5.55;;;1.63;;
23113;SDS011;11726;50.122;8.832;2023-04-03T14:14:13;4.13;;;1.60;;
23113;SDS011;11726;50.122;8.832;2023-04-03T14:16:50;3.58;;;1.42;;
23113;SDS011;11726;50.122;8.832;2023-04-03T14:19:26;2.40;;;1.42;;
23113;SDS011;11726;50.122;8.832;2023-04-03T14:21:55;2.75;;;1.00;;
23113;SDS011;11726;50.122;8.832;2023-04-03T14:24:24;3.85;;;1.75;;
23113;SDS011;11726;50.122;8.832;2023-04-03T14:26:52;3.25;;;1.92;;
23113;SDS011;11726;50.122;8.832;2023-04-03T14:29:20;4.55;;;1.80;;
23113;SDS011;11726;50.122;8.832;2023-04-03T14:31:48;3.45;;;1.60;;
23113;SDS011;11726;50.122;8.832;2023-04-03T14:34:25;4.72;;;1.55;;
23113;SDS011;11726;50.122;8.832;2023-04-03T14:36:52;4.63;;;1.75;;
23113;SDS011;11726;50.122;8.832;2023-04-03T14:39:19;3.78;;;2.05;;
23113;SDS011;11726;50.122;8.832;2023-04-03T14:41:46;3.17;;;1.30;;
23113;SDS011;11726;50.122;8.832;2023-04-03T14:44:13;3.15;;;1.48;;
23113;SDS011;11726;50.122;8.832;2023-04-03T14:46:43;3.00;;;1.45;;
23113;SDS011;11726;50.122;8.832;2023-04-03T14:49:23;4.75;;;1.50;;
23113;SDS011;11726;50.122;8.832;2023-04-03T14:51:52;6.70;;;1.70;;
23113;SDS011;11726;50.122;8.832;2023-04-03T14:54:20;2.33;;;1.20;;
23113;SDS011;11726;50.122;8.832;2023-04-03T14:56:51;2.13;;;1.00;;
23113;SDS011;11726;50.122;8.832;2023-04-03T14:59:19;4.28;;;1.23;;
23113;SDS011;11726;50.122;8.832;2023-04-03T15:01:47;2.80;;;1.33;;
23113;SDS011;11726;50.122;8.832;2023-04-03T15:04:15;2.95;;;1.00;;
23113;SDS011;11726;50.122;8.832;2023-04-03T15:06:45;1.88;;;1.00;;
23113;SDS011;11726;50.122;8.832;2023-04-03T15:09:20;1.80;;;1.00;;
23113;SDS011;11726;50.122;8.832;2023-04-03T15:11:51;2.65;;;1.67;;
23113;SDS011;11726;50.122;8.832;2023-04-03T15:14:19;1.73;;;1.15;;
23113;SDS011;11726;50.122;8.832;2023-04-03T15:17:02;2.20;;;1.10;;
23113;SDS011;11726;50.122;8.832;2023-04-03T15:19:32;1.63;;;1.10;;
23113;SDS011;11726;50.122;8.832;2023-04-03T15:22:03;2.38;;;1.00;;
23113;SDS011;11726;50.122;8.832;2023-04-03T15:24:30;2.47;;;1.10;;
23113;SDS011;11726;50.122;8.832;2023-04-03T15:26:57;2.28;;;1.33;;
23113;SDS011;11726;50.122;8.832;2023-04-03T15:29:24;1.63;;;1.00;;
23113;SDS011;11726;50.122;8.832;2023-04-03T15:31:51;1.45;;;1.02;;
23113;SDS011;11726;50.122;8.832;2023-04-03T15:34:19;2.28;;;1.08;;
23113;SDS011;11726;50.122;8.832;2023-04-03T15:36:49;2.40;;;1.08;;
23113;SDS011;11726;50.122;8.832;2023-04-03T15:39:19;2.55;;;1.40;;
23113;SDS011;11726;50.122;8.832;2023-04-03T15:41:46;2.60;;;1.60;;
23113;SDS011;11726;50.122;8.832;2023-04-03T15:44:13;4.53;;;1.27;;
23113;SDS011;11726;50.122;8.832;2023-04-03T15:46:44;1.65;;;1.00;;
23113;SDS011;11726;50.122;8.832;2023-04-03T15:49:12;3.00;;;1.70;;
23113;SDS011;11726;50.122;8.832;2023-04-03T15:51:39;1.85;;;1.00;;
23113;SDS011;11726;50.122;8.832;2023-04-03T15:54:07;2.05;;;1.27;;
23113;SDS011;11726;50.122;8.832;2023-04-03T15:56:34;1.98;;;1.02;;
23113;SDS011;11726;50.122;8.832;2023-04-03T15:59:00;2.08;;;1.00;;
23113;SDS011;11726;50.122;8.832;2023-04-03T16:01:30;4.35;;;1.15;;
23113;SDS011;11726;50.122;8.832;2023-04-03T16:03:57;2.17;;;1.00;;
23113;SDS011;11726;50.122;8.832;2023-04-03T16:13:53;2.30;;;1.10;;
23113;SDS011;11726;50.122;8.832;2023-04-03T16:16:20;2.67;;;1.17;;
23113;SDS011;11726;50.122;8.832;2023-04-03T16:18:48;2.75;;;1.40;;
23113;SDS011;11726;50.122;8.832;2023-04-03T16:21:15;1.70;;;1.10;;
23113;SDS011;11726;50.122;8.832;2023-04-03T16:23:43;3.05;;;1.30;;
23113;SDS011;11726;50.122;8.832;2023-04-03T16:26:10;2.22;;;1.30;;
23113;SDS011;11726;50.122;8.832;2023-04-03T16:28:37;2.03;;;1.20;;
23113;SDS011;11726;50.122;8.832;2023-04-03T16:31:04;2.60;;;1.27;;
23113;SDS011;11726;50.122;8.832;2023-04-03T16:33:32;3.17;;;1.45;;
23113;SDS011;11726;50.122;8.832;2023-04-03T16:35:59;2.92;;;1.30;;
23113;SDS011;11726;50.122;8.832;2023-04-03T16:38:28;1.60;;;1.00;;
23113;SDS011;11726;50.122;8.832;2023-04-03T16:40:55;2.30;;;1.10;;
23113;SDS011;11726;50.122;8.832;2023-04-03T16:43:26;3.55;;;1.20;;
23113;SDS011;11726;50.122;8.832;2023-04-03T16:45:53;4.05;;;1.55;;
23113;SDS011;11726;50.122;8.832;2023-04-03T16:48:20;2.67;;;1.05;;
23113;SDS011;11726;50.122;8.832;2023-04-03T16:50:47;3.80;;;1.30;;
23113;SDS011;11726;50.122;8.832;2023-04-03T16:53:15;2.28;;;1.20;;
23113;SDS011;11726;50.122;8.832;2023-04-03T16:55:42;3.50;;;1.38;;
23113;SDS011;11726;50.122;8.832;2023-04-03T16:58:08;2.55;;;1.30;;
23113;SDS011;11726;50.122;8.832;2023-04-03T17:00:36;4.03;;;1.27;;
23113;SDS011;11726;50.122;8.832;2023-04-03T17:03:03;3.13;;;1.00;;
23113;SDS011;11726;50.122;8.832;2023-04-03T17:05:30;2.42;;;1.13;;
23113;SDS011;11726;50.122;8.832;2023-04-03T17:07:58;3.50;;;1.45;;